KJGG Airport Information

Runway Information
Runway 13 Length 3204 ft width 60 ft
Elevation 48 ft Threshold 0 ft Heading 121
Runway 31 Length 3204 ft Width 60 ft
Elevation 22 ft Threshold 0 ft Heading 301
Airport Frequencies
Type A/D Name NORFOLK AP Frequency 119.45 MHZ
Type AWOS Name AWOS 3 Frequency 120.625 MHZ
Type UNIC Name CTAF/UNICO Frequency 122.8 MHZ
Airport Navaids
Airport Weather Information & NOTAM
ADDS - METARS form results

(0051 UTC 02 December 2021)
Data provider http://aviationweather.gov/metar/data/
 
METAR text: KJGG 020035Z AUTO 16003KT 10SM CLR 10/06 A3014 RMK AO1
Conditions at: KJGG (WILLIAMSBURG , VA, US) observed 0035 UTC 02 December 2021
Temperature: 10.0°C (50°F)
Dewpoint: 6.0°C (43°F) [RH = 76%]
Pressure (altimeter): 30.14 inches Hg (1020.7 mb)
Winds: from the SSE (160 degrees) at 3 MPH (3 knots; 1.5 m/s)
Visibility: 10 or more miles (16+ km)
Ceiling: at least 12,000 feet AGL
Clouds: sky clear below 12,000 feet AGL
Weather: automated observation with no human augmentation;
there may or may not be significant weather present at this time

METAR text: KJGG 020015Z AUTO 15004KT 10SM CLR 11/06 A3014 RMK AO1
Conditions at: KJGG (WILLIAMSBURG , VA, US) observed 0015 UTC 02 December 2021
Temperature: 11.0°C (52°F)
Dewpoint: 6.0°C (43°F) [RH = 71%]
Pressure (altimeter): 30.14 inches Hg (1020.7 mb)
Winds: from the SSE (150 degrees) at 5 MPH (4 knots; 2.1 m/s)
Visibility: 10 or more miles (16+ km)
Ceiling: at least 12,000 feet AGL
Clouds: sky clear below 12,000 feet AGL
Weather: automated observation with no human augmentation;
there may or may not be significant weather present at this time

METAR text: KJGG 012355Z AUTO 00000KT 10SM CLR 11/06 A3014 RMK AO1
Conditions at: KJGG (WILLIAMSBURG , VA, US) observed 2355 UTC 01 December 2021
Temperature: 11.0°C (52°F)
Dewpoint: 6.0°C (43°F) [RH = 71%]
Pressure (altimeter): 30.14 inches Hg (1020.7 mb)
Winds: calm
Visibility: 10 or more miles (16+ km)
Ceiling: at least 12,000 feet AGL
Clouds: sky clear below 12,000 feet AGL
Weather: automated observation with no human augmentation;
there may or may not be significant weather present at this time